BQA YSBK-YSCN
Flight info
| Callsign | BQA |
|---|---|
| Flight time | 0h 12m |
| Altitude | 2500 |
| Route | YSBK DCT YSCN |
| Aircraft | P28A/L-V/N |
Departure
| Time | 2026-05-09 09:09 |
|---|---|
| Airport | Sydney Bankstown Airport (YSBK) |
Arrival
| Time | 2026-05-09 09:21 |
|---|---|
| Airport | Camden Airport (YSCN) |
| Time | Latitude | Longitude | Altitude | Speed | Heading |
|---|---|---|---|---|---|
| 2026-05-09 08:51 | -33.91902 | 150.99691 | 58 ft | 0 kts | 18° |
| 2026-05-09 08:59 | -33.91901 | 150.99694 | 58 ft | 2 kts | 80° |
| 2026-05-09 08:59 | -33.91911 | 150.99695 | 55 ft | 0 kts | 217° |
| 2026-05-09 09:00 | -33.91915 | 150.99682 | 54 ft | 7 kts | 256° |
| 2026-05-09 09:00 | -33.91917 | 150.99671 | 55 ft | 0 kts | 269° |
| 2026-05-09 09:00 | -33.91917 | 150.99670 | 55 ft | 1 kts | 271° |
| 2026-05-09 09:01 | -33.91915 | 150.99642 | 55 ft | 1 kts | 272° |
| 2026-05-09 09:01 | -33.91915 | 150.99641 | 55 ft | 1 kts | 272° |
| 2026-05-09 09:01 | -33.91951 | 150.99621 | 53 ft | 10 kts | 192° |
| 2026-05-09 09:02 | -33.91972 | 150.99585 | 52 ft | 9 kts | 331° |
| 2026-05-09 09:02 | -33.91931 | 150.99520 | 51 ft | 11 kts | 277° |
| 2026-05-09 09:02 | -33.91956 | 150.99424 | 47 ft | 13 kts | 255° |
| 2026-05-09 09:02 | -33.91985 | 150.99314 | 42 ft | 15 kts | 252° |
| 2026-05-09 09:03 | -33.92024 | 150.99182 | 34 ft | 19 kts | 249° |
| 2026-05-09 09:03 | -33.92082 | 150.99047 | 23 ft | 14 kts | 208° |
| 2026-05-09 09:03 | -33.92107 | 150.98982 | 20 ft | 9 kts | 300° |
| 2026-05-09 09:03 | -33.92067 | 150.98909 | 20 ft | 13 kts | 305° |
| 2026-05-09 09:04 | -33.92004 | 150.98820 | 21 ft | 12 kts | 345° |
| 2026-05-09 09:04 | -33.91986 | 150.98825 | 22 ft | 0 kts | 141° |
| 2026-05-09 09:05 | -33.91986 | 150.98826 | 22 ft | 1 kts | 142° |
| 2026-05-09 09:05 | -33.92024 | 150.98845 | 21 ft | 8 kts | 274° |
| 2026-05-09 09:05 | -33.91988 | 150.98768 | 20 ft | 14 kts | 304° |
| 2026-05-09 09:05 | -33.91977 | 150.98693 | 18 ft | 6 kts | 182° |
| 2026-05-09 09:06 | -33.92029 | 150.98699 | 19 ft | 5 kts | 130° |
| 2026-05-09 09:06 | -33.92039 | 150.98715 | 19 ft | 0 kts | 123° |
| 2026-05-09 09:08 | -33.92067 | 150.98764 | 20 ft | 30 kts | 122° |
| 2026-05-09 09:08 | -33.92291 | 150.99166 | 85 ft | 74 kts | 124° |
| 2026-05-09 09:08 | -33.92608 | 150.99703 | 339 ft | 82 kts | 128° |
| 2026-05-09 09:08 | -33.92968 | 151.00304 | 578 ft | 92 kts | 125° |
| 2026-05-09 09:09 | -33.93333 | 151.00960 | 835 ft | 95 kts | 121° |
| 2026-05-09 09:09 | -33.93311 | 151.01730 | 1099 ft | 102 kts | 63° |
| 2026-05-09 09:09 | -33.92691 | 151.02190 | 1235 ft | 116 kts | 24° |
| 2026-05-09 09:09 | -33.91915 | 151.02104 | 1369 ft | 122 kts | 325° |
| 2026-05-09 09:10 | -33.91427 | 151.01294 | 1510 ft | 117 kts | 300° |
| 2026-05-09 09:10 | -33.91166 | 151.00436 | 1655 ft | 106 kts | 260° |
| 2026-05-09 09:10 | -33.91547 | 150.99725 | 1754 ft | 102 kts | 224° |
| 2026-05-09 09:10 | -33.92033 | 150.99112 | 1869 ft | 101 kts | 223° |
| 2026-05-09 09:11 | -33.92539 | 150.98492 | 1939 ft | 106 kts | 223° |
| 2026-05-09 09:11 | -33.93046 | 150.97876 | 2077 ft | 101 kts | 222° |
| 2026-05-09 09:11 | -33.93410 | 150.97160 | 2194 ft | 100 kts | 241° |
| 2026-05-09 09:11 | -33.93720 | 150.96424 | 2326 ft | 98 kts | 242° |
| 2026-05-09 09:12 | -33.94032 | 150.95680 | 2377 ft | 104 kts | 241° |
| 2026-05-09 09:12 | -33.94376 | 150.94879 | 2379 ft | 110 kts | 240° |
| 2026-05-09 09:12 | -33.94727 | 150.94069 | 2454 ft | 107 kts | 241° |
| 2026-05-09 09:12 | -33.95071 | 150.93275 | 2493 ft | 108 kts | 241° |
| 2026-05-09 09:13 | -33.95409 | 150.92486 | 2500 ft | 103 kts | 242° |
| 2026-05-09 09:13 | -33.95727 | 150.91738 | 2495 ft | 98 kts | 242° |
| 2026-05-09 09:13 | -33.96038 | 150.91014 | 2530 ft | 99 kts | 242° |
| 2026-05-09 09:13 | -33.96361 | 150.90265 | 2527 ft | 102 kts | 242° |
| 2026-05-09 09:14 | -33.96689 | 150.89496 | 2526 ft | 104 kts | 242° |
| 2026-05-09 09:14 | -33.97023 | 150.88713 | 2513 ft | 107 kts | 242° |
| 2026-05-09 09:14 | -33.97384 | 150.87938 | 2532 ft | 105 kts | 239° |
| 2026-05-09 09:14 | -33.97753 | 150.87172 | 2505 ft | 106 kts | 239° |
| 2026-05-09 09:15 | -33.98118 | 150.86402 | 2500 ft | 105 kts | 239° |
| 2026-05-09 09:15 | -33.98482 | 150.85643 | 2499 ft | 104 kts | 239° |
| 2026-05-09 09:15 | -33.98844 | 150.84896 | 2497 ft | 103 kts | 239° |
| 2026-05-09 09:15 | -33.99198 | 150.84139 | 2497 ft | 103 kts | 242° |
| 2026-05-09 09:16 | -33.99474 | 150.83348 | 2481 ft | 101 kts | 252° |
| 2026-05-09 09:16 | -33.99883 | 150.81778 | 2180 ft | 101 kts | 253° |
| 2026-05-09 09:16 | -34.00057 | 150.80966 | 1996 ft | 102 kts | 254° |
| 2026-05-09 09:17 | -34.00229 | 150.80141 | 1841 ft | 99 kts | 252° |
| 2026-05-09 09:17 | -34.00390 | 150.79334 | 1688 ft | 98 kts | 253° |
| 2026-05-09 09:17 | -34.00530 | 150.78556 | 1521 ft | 91 kts | 255° |
| 2026-05-09 09:17 | -34.00647 | 150.77805 | 1437 ft | 94 kts | 256° |
| 2026-05-09 09:18 | -34.00766 | 150.77012 | 1358 ft | 97 kts | 256° |
| 2026-05-09 09:18 | -34.00892 | 150.76286 | 1281 ft | 81 kts | 249° |
| 2026-05-09 09:18 | -34.01101 | 150.75642 | 1198 ft | 85 kts | 233° |
| 2026-05-09 09:18 | -34.01352 | 150.74994 | 1144 ft | 87 kts | 245° |
| 2026-05-09 09:19 | -34.01574 | 150.74335 | 1076 ft | 84 kts | 237° |
| 2026-05-09 09:19 | -34.01828 | 150.73689 | 1024 ft | 88 kts | 233° |
| 2026-05-09 09:19 | -34.02108 | 150.73045 | 920 ft | 84 kts | 240° |
| 2026-05-09 09:19 | -34.02327 | 150.72434 | 789 ft | 74 kts | 237° |
| 2026-05-09 09:20 | -34.02545 | 150.71875 | 659 ft | 73 kts | 231° |
| 2026-05-09 09:20 | -34.02696 | 150.71507 | 582 ft | 74 kts | 235° |
| 2026-05-09 09:20 | -34.02923 | 150.70955 | 503 ft | 74 kts | 236° |
| 2026-05-09 09:20 | -34.03211 | 150.70229 | 423 ft | 72 kts | 241° |
| 2026-05-09 09:21 | -34.03352 | 150.69869 | 359 ft | 71 kts | 241° |
| 2026-05-09 09:21 | -34.03562 | 150.69333 | 260 ft | 69 kts | 243° |
| 2026-05-09 09:21 | -34.03748 | 150.68855 | 243 ft | 55 kts | 244° |
| 2026-05-09 09:21 | -34.03836 | 150.68703 | 240 ft | 9 kts | 141° |
| 2026-05-09 09:22 | -34.03900 | 150.68698 | 239 ft | 12 kts | 190° |
| 2026-05-09 09:22 | -34.03987 | 150.68681 | 237 ft | 13 kts | 189° |
| 2026-05-09 09:22 | -34.04070 | 150.68690 | 236 ft | 10 kts | 149° |
| 2026-05-09 09:22 | -34.04119 | 150.68740 | 238 ft | 9 kts | 139° |
| 2026-05-09 09:23 | -34.04152 | 150.68774 | 240 ft | 6 kts | 140° |
| 2026-05-09 09:23 | -34.04202 | 150.68831 | 241 ft | 13 kts | 130° |
| 2026-05-09 09:23 | -34.04241 | 150.68888 | 241 ft | 5 kts | 64° |
| 2026-05-09 09:23 | -34.04232 | 150.68901 | 242 ft | 0 kts | 43° |
| 2026-05-09 09:24 | -34.04221 | 150.68910 | 243 ft | 0 kts | 24° |
| 2026-05-09 09:24 | -34.04224 | 150.68912 | 242 ft | 0 kts | 269° |